Time;durP1;ratioP1;P1;durP2;ratioP2;P2;SDS_P1;SDS_P2;PMS_P1;PMS_P2;Temp;Humidity;BMP_temperature;BMP_pressure;BME280_temperature;BME280_humidity;BME280_pressure;Samples;Min_cycle;Max_cycle;Signal;HPM_P1;HPM_P2
2022/06/08 00:00:15;;;;;;;8.87;6.70;;;10.00;99.90;;;;;;5020580;28;20224;-77
2022/06/08 00:02:45;;;;;;;8.57;6.83;;;10.00;99.90;;;;;;5020942;28;20701;-77
2022/06/08 00:05:12;;;;;;;9.03;6.40;;;10.00;99.90;;;;;;5023360;28;20753;-77
2022/06/08 00:07:39;;;;;;;8.43;6.60;;;9.90;99.90;;;;;;5029060;28;20235;-77
2022/06/08 00:10:08;;;;;;;10.80;6.50;;;9.90;99.90;;;;;;5022878;28;20318;-78
2022/06/08 00:12:37;;;;;;;7.63;5.90;;;9.90;99.90;;;;;;5023703;28;20635;-78
2022/06/08 00:15:05;;;;;;;7.83;6.07;;;9.80;99.90;;;;;;5027378;28;20311;-78
2022/06/08 00:17:31;;;;;;;9.17;5.97;;;9.80;99.90;;;;;;5022472;28;20582;-78
2022/06/08 00:19:58;;;;;;;6.83;6.03;;;9.70;99.90;;;;;;5040220;28;20233;-78
2022/06/08 00:22:25;;;;;;;8.77;6.40;;;9.70;99.90;;;;;;5018899;28;20311;-78
2022/06/08 00:24:52;;;;;;;9.03;5.93;;;9.70;99.90;;;;;;5020233;28;20822;-78
2022/06/08 00:27:18;;;;;;;7.87;6.10;;;9.60;99.90;;;;;;5016782;28;20228;-79
2022/06/08 00:29:46;;;;;;;8.10;6.03;;;9.60;99.90;;;;;;5017437;28;20232;-79
2022/06/08 00:32:13;;;;;;;6.93;5.93;;;9.60;99.90;;;;;;5023012;28;20253;-79
2022/06/08 00:34:40;;;;;;;10.50;6.40;;;9.60;99.90;;;;;;5021237;28;20239;-78
2022/06/08 00:37:07;;;;;;;8.57;5.73;;;9.60;99.90;;;;;;5014867;28;20244;-78
2022/06/08 00:39:34;;;;;;;8.60;5.50;;;9.50;99.90;;;;;;5020076;28;20232;-78
2022/06/08 00:42:03;;;;;;;7.80;5.67;;;9.50;99.90;;;;;;5021268;28;20666;-78
2022/06/08 00:44:35;;;;;;;6.90;5.70;;;9.50;99.90;;;;;;5018979;28;20228;-78
2022/06/08 00:47:06;;;;;;;9.10;6.50;;;9.50;99.90;;;;;;5020691;28;20237;-78
2022/06/08 00:49:40;;;;;;;7.97;6.17;;;9.50;99.90;;;;;;5025822;28;20278;-78
2022/06/08 00:52:07;;;;;;;6.83;5.83;;;9.40;99.90;;;;;;5016835;28;20227;-78
2022/06/08 00:54:38;;;;;;;7.97;6.03;;;9.40;99.90;;;;;;5013680;28;20602;-78
2022/06/08 00:57:11;;;;;;;9.50;6.20;;;9.40;99.90;;;;;;5017044;28;20227;-78
2022/06/08 00:59:42;;;;;;;7.40;6.33;;;9.40;99.90;;;;;;5019858;28;20535;-78
2022/06/08 01:02:10;;;;;;;10.30;6.30;;;9.40;99.90;;;;;;5018973;28;20220;-78
2022/06/08 01:04:37;;;;;;;7.83;6.67;;;9.40;99.90;;;;;;5019698;28;20340;-78
2022/06/08 01:07:05;;;;;;;9.47;6.43;;;9.30;99.90;;;;;;5023331;28;20294;-78
2022/06/08 01:09:36;;;;;;;9.87;6.23;;;9.30;99.90;;;;;;5033667;28;20255;-78
2022/06/08 01:12:08;;;;;;;8.43;5.73;;;9.30;99.90;;;;;;5028178;28;20213;-78
2022/06/08 01:14:39;;;;;;;7.23;5.40;;;9.30;99.90;;;;;;5020592;28;20218;-78
2022/06/08 01:17:11;;;;;;;7.03;5.00;;;9.30;99.90;;;;;;5017007;28;20536;-78
2022/06/08 01:19:45;;;;;;;6.63;5.53;;;9.30;99.90;;;;;;5027674;28;20674;-78
2022/06/08 01:22:16;;;;;;;6.40;5.60;;;9.30;99.90;;;;;;5024644;28;20250;-78
2022/06/08 01:24:49;;;;;;;6.57;5.63;;;9.20;99.90;;;;;;5020298;28;20879;-78
2022/06/08 01:27:28;;;;;;;9.63;5.57;;;9.20;99.90;;;;;;5026118;28;20305;-78
2022/06/08 01:30:09;;;;;;;6.57;5.13;;;9.20;99.90;;;;;;5027138;28;20220;-78
2022/06/08 01:32:58;;;;;;;5.90;5.30;;;9.20;99.90;;;;;;5020162;28;20236;-78
2022/06/08 01:35:33;;;;;;;6.97;5.23;;;9.20;99.90;;;;;;5034414;28;20327;-78
2022/06/08 01:38:12;;;;;;;8.20;5.63;;;9.20;99.90;;;;;;5022531;28;20230;-78
2022/06/08 01:40:53;;;;;;;8.00;5.40;;;9.20;99.90;;;;;;5022723;28;20264;-78
2022/06/08 01:43:28;;;;;;;5.87;5.27;;;9.10;99.90;;;;;;5023046;28;20314;-79
2022/06/08 01:46:06;;;;;;;5.57;4.70;;;9.10;99.90;;;;;;5026225;28;20308;-79
2022/06/08 01:48:51;;;;;;;6.63;4.93;;;9.10;99.90;;;;;;5024621;28;20226;-79
2022/06/08 01:51:26;;;;;;;8.20;5.60;;;9.10;99.90;;;;;;5020537;28;20232;-79
2022/06/08 01:54:04;;;;;;;6.90;4.70;;;9.00;99.90;;;;;;5017405;28;20380;-79
2022/06/08 01:56:42;;;;;;;7.90;5.63;;;9.00;99.90;;;;;;5024532;28;20250;-78
2022/06/08 01:59:21;;;;;;;8.17;5.10;;;9.00;99.90;;;;;;5015299;28;20223;-79
2022/06/08 02:01:55;;;;;;;7.20;5.13;;;8.90;99.90;;;;;;5016771;28;20224;-78
2022/06/08 02:04:31;;;;;;;5.13;4.10;;;8.90;99.90;;;;;;5019654;28;20280;-78
2022/06/08 02:07:07;;;;;;;5.53;5.00;;;8.90;99.90;;;;;;5021350;28;20364;-78
2022/06/08 02:09:41;;;;;;;6.47;4.97;;;8.90;99.90;;;;;;5019947;28;20234;-79
2022/06/08 02:12:10;;;;;;;7.37;5.30;;;8.80;99.90;;;;;;5014149;28;20224;-78
2022/06/08 02:14:48;;;;;;;6.03;5.37;;;8.80;99.90;;;;;;5016616;28;20238;-78
2022/06/08 02:17:23;;;;;;;9.90;6.00;;;8.80;99.90;;;;;;5013991;28;20588;-78
2022/06/08 02:19:55;;;;;;;8.70;6.43;;;8.80;99.90;;;;;;5024075;28;20305;-78
2022/06/08 02:22:30;;;;;;;7.57;6.40;;;8.70;99.90;;;;;;5021869;28;20896;-78
2022/06/08 02:25:09;;;;;;;9.07;7.10;;;8.70;99.90;;;;;;5017452;28;20254;-78
2022/06/08 02:27:41;;;;;;;8.33;6.50;;;8.70;99.90;;;;;;5016093;28;20240;-78
2022/06/08 02:30:12;;;;;;;9.40;7.33;;;8.70;99.90;;;;;;5018969;28;20433;-77
2022/06/08 02:35:31;;;;;;;12.97;6.97;;;8.70;99.90;;;;;;5015339;28;20220;-77
2022/06/08 02:38:05;;;;;;;7.10;5.13;;;8.70;99.90;;;;;;5020509;28;20298;-77
2022/06/08 02:40:35;;;;;;;6.33;5.30;;;8.70;99.90;;;;;;5022330;28;20255;-78
2022/06/08 02:43:12;;;;;;;6.87;6.17;;;8.60;99.90;;;;;;5031486;28;20570;-78
2022/06/08 02:45:43;;;;;;;8.00;6.37;;;8.70;99.90;;;;;;5022630;28;21151;-78
2022/06/08 02:48:14;;;;;;;8.13;6.73;;;8.60;99.90;;;;;;5013341;28;20310;-78
2022/06/08 02:50:51;;;;;;;8.47;6.73;;;8.60;99.90;;;;;;5022125;28;20273;-78
2022/06/08 02:53:43;;;;;;;9.17;6.13;;;8.50;99.90;;;;;;5019209;28;20245;-78
2022/06/08 02:56:19;;;;;;;9.73;5.50;;;8.50;99.90;;;;;;5014723;28;20584;-78
2022/06/08 02:58:53;;;;;;;7.17;5.93;;;8.50;99.90;;;;;;5019633;28;20265;-78
2022/06/08 03:01:26;;;;;;;8.40;6.60;;;8.50;99.90;;;;;;5016524;28;20231;-79
2022/06/08 03:03:56;;;;;;;7.03;6.10;;;8.50;99.90;;;;;;5022496;28;20313;-78
2022/06/08 03:06:27;;;;;;;9.07;6.97;;;8.50;99.90;;;;;;5020374;28;20234;-77
2022/06/08 03:08:57;;;;;;;7.50;6.53;;;8.40;99.90;;;;;;5021087;28;20296;-80
2022/06/08 03:11:32;;;;;;;7.53;6.13;;;8.40;99.90;;;;;;5015022;28;20319;-80
2022/06/08 03:14:03;;;;;;;10.57;6.83;;;8.40;99.90;;;;;;5015817;28;20222;-79
2022/06/08 03:16:32;;;;;;;9.17;7.20;;;8.40;99.90;;;;;;5024365;28;20235;-78
2022/06/08 03:19:00;;;;;;;11.07;6.97;;;8.40;99.90;;;;;;5022659;28;20583;-79
2022/06/08 03:21:28;;;;;;;7.87;6.80;;;8.40;99.90;;;;;;5038521;28;20240;-79
2022/06/08 03:23:56;;;;;;;6.90;5.90;;;8.40;99.90;;;;;;5024656;28;20233;-79
2022/06/08 03:26:27;;;;;;;9.40;6.90;;;8.40;99.90;;;;;;5024086;28;20280;-79
2022/06/08 03:28:55;;;;;;;7.07;6.33;;;8.40;99.90;;;;;;5036302;28;20224;-78
2022/06/08 03:31:22;;;;;;;8.50;6.37;;;8.40;99.90;;;;;;5025221;28;20227;-78
2022/06/08 03:33:49;;;;;;;8.83;6.43;;;8.40;99.90;;;;;;5014143;28;20794;-79
2022/06/08 03:36:16;;;;;;;9.93;7.13;;;8.40;99.90;;;;;;5027157;28;20271;-78
2022/06/08 03:38:43;;;;;;;8.90;7.57;;;8.50;99.90;;;;;;5026305;28;20251;-78
2022/06/08 03:41:11;;;;;;;9.67;6.87;;;8.50;99.90;;;;;;5018675;28;20243;-78
2022/06/08 03:43:39;;;;;;;9.37;7.30;;;8.60;99.90;;;;;;5027843;28;20226;-79
2022/06/08 03:46:09;;;;;;;7.70;6.90;;;8.60;99.90;;;;;;5023451;28;20329;-78
2022/06/08 03:48:36;;;;;;;11.67;8.33;;;8.60;99.90;;;;;;5029733;28;20223;-79
2022/06/08 03:51:03;;;;;;;9.23;7.57;;;8.60;99.90;;;;;;5021046;28;20231;-79
2022/06/08 03:53:35;;;;;;;11.23;7.83;;;8.70;99.90;;;;;;5024487;28;20251;-78
2022/06/08 03:56:04;;;;;;;8.50;6.87;;;8.70;99.90;;;;;;5019904;28;20228;-78
2022/06/08 03:58:32;;;;;;;8.57;7.17;;;8.80;99.90;;;;;;5028085;28;20696;-78
2022/06/08 04:01:03;;;;;;;9.17;7.50;;;8.90;99.90;;;;;;5027449;28;20232;-78
2022/06/08 04:03:31;;;;;;;11.97;8.00;;;8.90;99.90;;;;;;5024614;28;20224;-78
2022/06/08 04:06:00;;;;;;;10.63;7.70;;;9.00;99.90;;;;;;5023367;28;20280;-78
2022/06/08 04:08:31;;;;;;;10.30;7.20;;;9.00;99.90;;;;;;5029672;28;20231;-78
2022/06/08 04:10:59;;;;;;;8.63;7.47;;;9.10;99.90;;;;;;5023564;28;20255;-78
2022/06/08 04:13:28;;;;;;;9.13;7.50;;;9.10;99.90;;;;;;5026601;28;20217;-78
2022/06/08 04:16:01;;;;;;;8.67;7.23;;;9.20;99.90;;;;;;5024862;28;20244;-78
2022/06/08 04:18:36;;;;;;;8.70;7.30;;;9.20;99.90;;;;;;5023778;28;20231;-78
2022/06/08 04:21:09;;;;;;;9.37;6.77;;;9.30;99.90;;;;;;5026641;28;20221;-77
2022/06/08 04:23:53;;;;;;;8.67;7.10;;;9.30;99.90;;;;;;5032608;28;20236;-77
2022/06/08 04:26:23;;;;;;;9.13;7.53;;;9.40;99.90;;;;;;5020484;28;20278;-77
2022/06/08 04:28:55;;;;;;;10.30;7.80;;;9.40;99.90;;;;;;5023622;28;20591;-77
2022/06/08 04:31:23;;;;;;;8.90;7.43;;;9.50;99.90;;;;;;5022189;28;20231;-78
2022/06/08 04:33:56;;;;;;;11.60;7.80;;;9.50;99.90;;;;;;5018717;28;21000;-80
2022/06/08 04:36:31;;;;;;;12.50;7.80;;;9.60;99.90;;;;;;5023086;28;20791;-77
2022/06/08 04:38:59;;;;;;;10.13;7.13;;;9.60;99.90;;;;;;5023341;28;20309;-77
2022/06/08 04:41:27;;;;;;;10.60;7.47;;;9.60;99.90;;;;;;5024794;28;20224;-78
2022/06/08 04:43:55;;;;;;;9.00;6.83;;;9.70;99.90;;;;;;5018109;28;20834;-79
2022/06/08 04:46:23;;;;;;;10.90;7.47;;;9.70;99.90;;;;;;5020707;28;20237;-78
2022/06/08 04:48:52;;;;;;;9.90;7.70;;;9.80;99.90;;;;;;5024508;28;20301;-78
2022/06/08 04:51:24;;;;;;;9.67;7.33;;;9.80;99.90;;;;;;5025656;28;20234;-78
2022/06/08 04:53:52;;;;;;;13.93;7.97;;;9.90;99.90;;;;;;5024542;28;20323;-78
2022/06/08 04:56:20;;;;;;;10.57;7.97;;;10.00;99.90;;;;;;5022812;28;20256;-78
2022/06/08 04:58:53;;;;;;;9.03;7.33;;;10.10;99.90;;;;;;5025332;28;20217;-78
2022/06/08 05:01:20;;;;;;;10.10;7.67;;;10.10;99.90;;;;;;5024789;28;20407;-78
2022/06/08 05:03:48;;;;;;;11.77;7.93;;;10.20;99.90;;;;;;5023168;28;20675;-78
2022/06/08 05:06:16;;;;;;;11.87;7.47;;;10.20;99.90;;;;;;5021907;28;20274;-77
2022/06/08 05:08:44;;;;;;;9.87;8.00;;;10.30;99.90;;;;;;5021064;28;20956;-78
2022/06/08 05:11:11;;;;;;;9.53;7.30;;;10.40;99.90;;;;;;5024785;28;20229;-80
2022/06/08 05:13:40;;;;;;;11.03;7.50;;;10.50;99.90;;;;;;5026864;28;20219;-77
2022/06/08 05:16:13;;;;;;;9.37;7.07;;;10.50;99.90;;;;;;5019278;28;20239;-78
2022/06/08 05:18:44;;;;;;;12.87;8.23;;;10.60;99.90;;;;;;5022570;28;20235;-78
2022/06/08 05:21:15;;;;;;;10.03;8.20;;;10.60;99.90;;;;;;5017998;28;20245;-78
2022/06/08 05:23:44;;;;;;;11.80;8.57;;;10.70;99.90;;;;;;5023700;28;20293;-78
2022/06/08 05:26:15;;;;;;;10.03;7.57;;;10.80;99.90;;;;;;5017583;28;20217;-80
2022/06/08 05:28:43;;;;;;;12.10;8.50;;;10.90;99.90;;;;;;5031598;28;20252;-80
2022/06/08 05:31:12;;;;;;;11.70;7.77;;;11.00;99.90;;;;;;5022231;28;20237;-79
2022/06/08 05:33:42;;;;;;;9.87;8.27;;;11.10;99.90;;;;;;5021124;28;20236;-79
2022/06/08 05:36:16;;;;;;;10.07;8.17;;;11.20;99.90;;;;;;5018440;28;20236;-81
2022/06/08 05:38:44;;;;;;;11.13;7.80;;;11.30;99.90;;;;;;5028928;28;20600;-79
2022/06/08 05:41:12;;;;;;;10.93;8.07;;;11.40;99.90;;;;;;5027553;28;20232;-79
2022/06/08 05:43:40;;;;;;;10.53;8.10;;;11.50;99.90;;;;;;5025290;28;20252;-79
2022/06/08 05:46:08;;;;;;;10.57;8.13;;;11.60;99.90;;;;;;5023578;28;20588;-79
2022/06/08 05:48:35;;;;;;;12.00;8.30;;;11.70;99.90;;;;;;5024507;28;20228;-79
2022/06/08 05:51:05;;;;;;;11.13;8.63;;;11.80;99.90;;;;;;5025300;28;20662;-79
2022/06/08 05:53:33;;;;;;;11.83;7.90;;;11.90;99.90;;;;;;5021339;28;20700;-80
2022/06/08 05:56:01;;;;;;;10.27;7.50;;;12.00;99.90;;;;;;5023831;28;20305;-79
2022/06/08 05:58:31;;;;;;;10.23;7.83;;;12.10;99.90;;;;;;5023385;28;20230;-79
2022/06/08 06:00:59;;;;;;;10.07;7.63;;;12.20;99.90;;;;;;5024578;28;20585;-80
2022/06/08 06:03:26;;;;;;;12.63;7.63;;;12.30;99.90;;;;;;5023919;28;20224;-80
2022/06/08 06:05:53;;;;;;;9.07;7.50;;;12.50;99.90;;;;;;5024262;28;20226;-79
2022/06/08 06:08:22;;;;;;;9.60;6.73;;;12.70;99.90;;;;;;5024679;28;20220;-79
2022/06/08 06:10:53;;;;;;;11.00;7.40;;;12.80;99.90;;;;;;5023966;28;20221;-79
2022/06/08 06:13:34;;;;;;;11.23;7.37;;;13.00;99.90;;;;;;5024222;28;20230;-80
2022/06/08 06:16:01;;;;;;;10.53;7.27;;;13.10;99.90;;;;;;5024307;28;20582;-80
2022/06/08 06:18:30;;;;;;;9.03;6.80;;;13.20;99.90;;;;;;5026969;28;20796;-80
2022/06/08 06:21:16;;;;;;;10.93;7.37;;;13.30;99.90;;;;;;5024224;28;20302;-80
2022/06/08 06:23:50;;;;;;;9.20;6.63;;;13.40;99.90;;;;;;5029672;28;20318;-81
2022/06/08 06:26:41;;;;;;;10.57;7.60;;;13.50;99.90;;;;;;5021668;28;20660;-79
2022/06/08 06:29:29;;;;;;;7.80;6.97;;;13.70;99.90;;;;;;5022610;28;20217;-80
2022/06/08 06:32:03;;;;;;;8.13;7.37;;;13.80;99.90;;;;;;5026585;28;20223;-80
2022/06/08 06:34:39;;;;;;;10.93;7.67;;;14.00;99.90;;;;;;5036795;28;20238;-81
2022/06/08 06:37:06;;;;;;;9.13;6.93;;;14.20;99.90;;;;;;5032294;28;20246;-80
2022/06/08 06:39:33;;;;;;;8.60;7.10;;;14.40;99.90;;;;;;5028343;28;20268;-85
2022/06/08 06:42:20;;;;;;;7.67;6.87;;;14.60;99.90;;;;;;5030627;28;20261;-83
2022/06/08 06:44:56;;;;;;;9.17;7.07;;;14.80;99.90;;;;;;5029761;28;20225;-82
2022/06/08 06:47:47;;;;;;;8.80;6.40;;;15.00;99.90;;;;;;5028554;28;20227;-81
2022/06/08 06:50:25;;;;;;;10.33;6.83;;;15.20;99.90;;;;;;5020110;28;20309;-80
2022/06/08 06:52:55;;;;;;;8.10;6.33;;;15.30;99.90;;;;;;5024384;28;20232;-80
2022/06/08 06:55:28;;;;;;;7.53;6.20;;;15.50;99.90;;;;;;5019863;28;20302;-80
2022/06/08 06:57:58;;;;;;;8.13;6.23;;;15.60;99.90;;;;;;5016027;28;20231;-80
2022/06/08 07:00:31;;;;;;;7.10;6.37;;;15.60;99.90;;;;;;5038461;28;20232;-81
2022/06/08 07:03:00;;;;;;;7.30;6.10;;;15.60;99.90;;;;;;5028826;28;20243;-81
2022/06/08 07:05:31;;;;;;;8.50;6.43;;;15.60;99.90;;;;;;5033517;28;20281;-81
2022/06/08 07:07:58;;;;;;;6.97;5.90;;;15.50;99.90;;;;;;5027501;28;20232;-81
2022/06/08 07:10:25;;;;;;;11.63;6.40;;;15.40;99.90;;;;;;5029843;28;20249;-80
2022/06/08 07:12:53;;;;;;;8.10;6.60;;;15.30;99.90;;;;;;5031165;28;20236;-81
2022/06/08 07:15:23;;;;;;;8.47;6.80;;;15.30;99.90;;;;;;5026831;28;20302;-81
2022/06/08 07:17:53;;;;;;;11.27;6.30;;;15.20;99.90;;;;;;5017638;28;20251;-86
2022/06/08 07:20:22;;;;;;;8.93;6.30;;;15.20;99.90;;;;;;5024615;28;20257;-84
2022/06/08 07:22:50;;;;;;;7.73;5.83;;;15.20;99.90;;;;;;5024679;28;20230;-84
2022/06/08 07:25:18;;;;;;;6.27;5.57;;;15.10;99.90;;;;;;5024550;28;20305;-84
2022/06/08 07:27:45;;;;;;;8.53;6.07;;;15.00;99.90;;;;;;5025347;28;20291;-84
2022/06/08 07:30:14;;;;;;;6.20;5.60;;;15.00;99.90;;;;;;5025519;28;20319;-84
2022/06/08 07:32:41;;;;;;;7.97;6.10;;;14.90;99.90;;;;;;5023160;28;20317;-84
2022/06/08 07:35:15;;;;;;;10.27;6.43;;;14.90;99.90;;;;;;5023320;28;20314;-84
2022/06/08 07:37:42;;;;;;;9.03;6.10;;;14.90;99.90;;;;;;5022859;28;20226;-84
2022/06/08 07:40:10;;;;;;;7.80;6.03;;;14.80;99.90;;;;;;5022202;28;20281;-84
2022/06/08 07:42:37;;;;;;;8.83;6.57;;;14.80;99.90;;;;;;5030649;28;20921;-83
2022/06/08 07:45:06;;;;;;;10.43;6.73;;;14.80;99.90;;;;;;5023266;28;20253;-84
2022/06/08 07:47:33;;;;;;;10.03;6.00;;;14.80;99.90;;;;;;5023282;28;20297;-84
2022/06/08 07:49:59;;;;;;;8.37;5.63;;;14.80;99.90;;;;;;5024329;28;20310;-84
2022/06/08 07:52:27;;;;;;;9.67;5.70;;;14.80;99.90;;;;;;5024610;28;20310;-84
2022/06/08 07:54:54;;;;;;;8.07;5.57;;;15.00;99.90;;;;;;5023162;28;20321;-84
2022/06/08 07:57:23;;;;;;;8.03;5.57;;;14.90;99.90;;;;;;5015222;28;20261;-84
2022/06/08 07:59:50;;;;;;;7.13;5.00;;;15.00;99.90;;;;;;5037221;28;20272;-84
2022/06/08 08:02:17;;;;;;;8.10;5.53;;;15.00;99.90;;;;;;5027921;28;20744;-84
2022/06/08 08:04:44;;;;;;;7.73;5.53;;;15.00;99.90;;;;;;5028022;28;20241;-83
2022/06/08 08:07:13;;;;;;;7.60;5.57;;;15.10;99.90;;;;;;5025901;28;20716;-84
2022/06/08 08:09:42;;;;;;;7.03;5.00;;;15.10;99.90;;;;;;5029179;28;20231;-84
2022/06/08 08:12:12;;;;;;;7.87;5.10;;;15.10;99.90;;;;;;5025452;28;20226;-84
2022/06/08 08:14:38;;;;;;;8.33;4.83;;;15.20;99.90;;;;;;5027562;28;20704;-83
2022/06/08 08:17:05;;;;;;;8.37;4.80;;;15.30;99.90;;;;;;5007747;28;20232;-84
2022/06/08 08:19:33;;;;;;;5.90;5.00;;;15.40;99.90;;;;;;5006290;28;20225;-84
2022/06/08 08:22:00;;;;;;;5.87;4.43;;;15.40;99.90;;;;;;5007793;28;20561;-84
2022/06/08 08:24:27;;;;;;;6.37;4.87;;;15.60;99.90;;;;;;5013428;28;20242;-83
2022/06/08 08:26:56;;;;;;;9.77;4.97;;;15.70;99.90;;;;;;5026038;28;20242;-83
2022/06/08 08:29:23;;;;;;;6.80;4.43;;;16.00;99.90;;;;;;5018960;28;20266;-83
2022/06/08 08:31:50;;;;;;;6.33;4.70;;;16.20;99.90;;;;;;5026190;28;20246;-85
2022/06/08 08:34:17;;;;;;;4.93;4.00;;;16.50;99.90;;;;;;5025167;28;20308;-84
2022/06/08 08:36:45;;;;;;;7.27;4.70;;;16.80;99.90;;;;;;5025899;28;20727;-84
2022/06/08 08:39:12;;;;;;;7.17;4.53;;;17.20;99.90;;;;;;5026654;28;20270;-83
2022/06/08 08:44:34;;;;;;;7.37;5.60;;;18.10;99.90;;;;;;5025607;28;20232;-84
2022/06/08 08:47:09;;;;;;;7.00;4.80;;;18.70;99.70;;;;;;5027432;28;20307;-84
2022/06/08 08:49:40;;;;;;;7.65;5.43;;;19.30;99.60;;;;;;5025442;28;20237;-84
2022/06/08 08:52:17;;;;;;;9.05;5.45;;;19.90;99.20;;;;;;5025619;28;20308;-84
2022/06/08 08:54:53;;;;;;;9.00;6.45;;;20.60;96.30;;;;;;5025269;28;20315;-84
2022/06/08 08:57:26;;;;;;;8.82;7.22;;;21.20;96.10;;;;;;5026680;28;20244;-84
2022/06/08 08:59:54;;;;;;;7.65;6.78;;;21.70;95.00;;;;;;5025597;28;20221;-84
2022/06/08 09:05:12;;;;;;;7.47;5.55;;;22.50;93.50;;;;;;5008235;28;20224;-83
2022/06/08 09:07:39;;;;;;;8.48;5.70;;;22.90;93.30;;;;;;5025552;28;20229;-84
2022/06/08 09:10:07;;;;;;;7.43;6.20;;;23.30;94.00;;;;;;5024773;28;20439;-84
2022/06/08 09:12:33;;;;;;;7.95;5.68;;;23.70;92.70;;;;;;5026746;28;20252;-84
2022/06/08 09:15:02;;;;;;;8.82;5.20;;;24.10;90.90;;;;;;5025158;28;20756;-84
2022/06/08 09:17:35;;;;;;;7.68;5.72;;;24.30;89.50;;;;;;5026107;28;20239;-84
2022/06/08 09:20:05;;;;;;;6.90;5.88;;;24.50;89.10;;;;;;5024688;28;20221;-83
2022/06/08 09:22:32;;;;;;;8.63;6.55;;;24.80;90.30;;;;;;5025292;28;20258;-84
2022/06/08 09:25:01;;;;;;;8.25;6.00;;;25.00;89.20;;;;;;5024831;28;20217;-84
2022/06/08 09:27:31;;;;;;;8.93;6.22;;;25.20;87.50;;;;;;5025119;28;20229;-84
2022/06/08 09:30:15;;;;;;;10.00;6.45;;;25.40;86.00;;;;;;5024937;28;20674;-84
2022/06/08 09:32:46;;;;;;;9.63;7.80;;;25.60;86.30;;;;;;5024599;28;20228;-84
2022/06/08 09:35:26;;;;;;;9.10;6.63;;;25.80;84.70;;;;;;5025855;28;20229;-83
2022/06/08 09:37:56;;;;;;;7.75;6.47;;;26.00;85.20;;;;;;5023758;28;20239;-83
2022/06/08 09:40:37;;;;;;;8.68;6.80;;;26.20;85.10;;;;;;5023880;28;20224;-84
2022/06/08 09:43:32;;;;;;;7.93;6.65;;;26.50;85.40;;;;;;5024484;28;20299;-84
2022/06/08 09:46:06;;;;;;;9.10;6.55;;;26.80;81.50;;;;;;5019728;28;20258;-84
2022/06/08 09:51:59;;;;;;;6.97;5.97;;;27.30;79.50;;;;;;5024246;28;20258;-83
2022/06/08 09:54:39;;;;;;;7.88;6.78;;;27.50;81.70;;;;;;5023440;28;20703;-84
2022/06/08 09:57:20;;;;;;;8.40;6.78;;;27.80;81.50;;;;;;5024028;28;20236;-83
2022/06/08 10:00:02;;;;;;;9.75;8.48;;;28.00;79.40;;;;;;5024204;28;20220;-84
2022/06/08 10:02:40;;;;;;;9.07;7.47;;;28.20;73.90;;;;;;5024075;28;20806;-84
2022/06/08 10:05:16;;;;;;;8.85;7.95;;;28.20;75.20;;;;;;5023669;28;20216;-84
2022/06/08 10:07:49;;;;;;;7.28;6.10;;;28.00;75.10;;;;;;5024351;28;20240;-82
2022/06/08 10:10:25;;;;;;;10.65;7.57;;;27.90;75.80;;;;;;5023621;28;20225;-84
2022/06/08 10:12:57;;;;;;;10.25;8.70;;;27.70;75.40;;;;;;5024237;28;20263;-84
2022/06/08 10:15:31;;;;;;;9.93;8.20;;;27.50;73.00;;;;;;5018736;28;20232;-84
2022/06/08 10:18:06;;;;;;;9.23;7.93;;;27.30;74.10;;;;;;5017518;28;20620;-83
2022/06/08 10:20:38;;;;;;;11.73;7.65;;;26.90;74.30;;;;;;5023499;28;20247;-84
2022/06/08 10:23:18;;;;;;;8.52;7.63;;;26.80;75.80;;;;;;5022707;28;20220;-84
2022/06/08 10:25:52;;;;;;;12.27;7.80;;;26.60;76.40;;;;;;5025349;28;20383;-84
2022/06/08 10:28:26;;;;;;;10.65;9.55;;;26.70;76.50;;;;;;5024915;28;20634;-84
2022/06/08 10:30:58;;;;;;;8.77;7.88;;;26.70;73.50;;;;;;5025017;28;20228;-83
2022/06/08 10:33:34;;;;;;;8.80;7.90;;;26.60;74.10;;;;;;5023345;28;20387;-84
2022/06/08 10:36:03;;;;;;;8.60;7.70;;;26.50;74.30;;;;;;5032441;28;20248;-83
2022/06/08 10:38:33;;;;;;;9.80;8.73;;;26.30;76.20;;;;;;5016804;28;20227;-84
2022/06/08 10:42:39;;;;;;;9.23;8.18;;;26.10;75.60;;;;;;5024831;28;20294;-82
2022/06/08 10:44:28;;;;;;;9.00;7.28;;;26.00;74.70;;;;;;5007408;28;20323;-83
2022/06/08 10:46:56;;;;;;;8.85;7.63;;;25.80;76.30;;;;;;5023860;28;20236;-84
2022/06/08 10:49:50;;;;;;;10.20;7.90;;;25.70;76.70;;;;;;5016289;28;20328;-83
2022/06/08 10:52:30;;;;;;;10.27;7.97;;;25.80;76.40;;;;;;5023106;28;20592;-84
2022/06/08 10:55:41;;;;;;;8.30;7.50;;;26.00;77.40;;;;;;5025178;28;20224;-82
2022/06/08 10:58:12;;;;;;;7.78;7.03;;;26.20;76.90;;;;;;5008186;28;20216;-83
2022/06/08 11:01:07;;;;;;;6.80;6.20;;;26.60;75.60;;;;;;5017931;28;20378;-84
2022/06/08 11:03:54;;;;;;;8.20;7.32;;;26.80;75.90;;;;;;5022802;28;20690;-83
2022/06/08 11:07:04;;;;;;;7.75;6.95;;;27.00;73.40;;;;;;5022969;28;20238;-83
2022/06/08 11:10:05;;;;;;;9.00;7.40;;;27.10;72.60;;;;;;5008846;28;20693;-84
2022/06/08 11:12:53;;;;;;;9.15;7.57;;;27.20;74.00;;;;;;5025694;28;20231;-83
2022/06/08 11:15:34;;;;;;;8.15;6.57;;;27.30;73.40;;;;;;5026354;28;20308;-84
2022/06/08 11:18:12;;;;;;;7.53;6.82;;;27.40;73.80;;;;;;5026022;28;20228;-83
2022/06/08 11:20:47;;;;;;;8.80;7.70;;;27.50;74.30;;;;;;5024825;28;20319;-83
2022/06/08 11:23:18;;;;;;;7.45;6.70;;;27.60;72.80;;;;;;5025371;28;20221;-83
2022/06/08 11:25:48;;;;;;;7.65;6.95;;;27.80;73.80;;;;;;5025540;28;20248;-82
2022/06/08 11:28:33;;;;;;;6.15;5.55;;;28.00;73.10;;;;;;5024531;28;20224;-83
2022/06/08 11:31:03;;;;;;;7.45;6.75;;;28.30;73.50;;;;;;5017883;28;20236;-83
2022/06/08 11:34:03;;;;;;;8.10;7.30;;;28.60;72.00;;;;;;5027086;28;20630;-83
2022/06/08 11:36:55;;;;;;;8.05;7.30;;;28.70;66.40;;;;;;5031239;28;20236;-83
2022/06/08 11:39:31;;;;;;;8.13;6.68;;;28.60;68.80;;;;;;5029289;28;20217;-83
2022/06/08 11:42:09;;;;;;;6.95;6.25;;;28.40;68.20;;;;;;5017632;28;20233;-82
2022/06/08 11:44:42;;;;;;;7.32;6.53;;;28.20;69.20;;;;;;5034041;28;20231;-83
2022/06/08 11:47:19;;;;;;;7.63;6.80;;;28.00;68.70;;;;;;5026917;28;20311;-84
2022/06/08 11:49:55;;;;;;;8.23;6.90;;;27.70;68.40;;;;;;5029232;28;20303;-83
2022/06/08 11:52:37;;;;;;;8.40;7.00;;;27.30;68.60;;;;;;5029566;28;20320;-83
2022/06/08 11:55:23;;;;;;;7.50;6.80;;;26.90;68.10;;;;;;5021797;28;20252;-82
2022/06/08 11:57:54;;;;;;;7.30;6.55;;;26.70;69.60;;;;;;5029976;28;20259;-83
2022/06/08 12:00:33;;;;;;;6.38;5.78;;;26.50;70.80;;;;;;5030424;28;20562;-82
2022/06/08 12:03:05;;;;;;;8.63;7.38;;;26.40;71.50;;;;;;5030184;28;20307;-83
2022/06/08 12:05:35;;;;;;;7.32;6.50;;;26.40;70.70;;;;;;5031357;28;20316;-83
2022/06/08 12:08:09;;;;;;;6.55;5.78;;;26.40;70.80;;;;;;5032751;28;20220;-82
2022/06/08 12:10:37;;;;;;;6.20;5.60;;;26.30;70.90;;;;;;5032439;28;20232;-82
2022/06/08 12:13:05;;;;;;;6.45;5.85;;;26.20;70.90;;;;;;5030888;28;20221;-83
2022/06/08 12:15:46;;;;;;;7.60;6.07;;;26.10;70.70;;;;;;5045942;28;20248;-83
2022/06/08 12:18:39;;;;;;;7.70;5.32;;;26.00;71.00;;;;;;5016502;28;20228;-83
2022/06/08 12:21:23;;;;;;;5.72;5.22;;;25.90;72.00;;;;;;5023302;28;20221;-83
2022/06/08 12:24:15;;;;;;;7.22;5.30;;;25.90;72.10;;;;;;5028102;28;20221;-82
2022/06/08 12:26:53;;;;;;;6.10;5.35;;;26.00;71.70;;;;;;5029576;28;20540;-83
2022/06/08 12:29:33;;;;;;;5.00;4.50;;;26.10;69.00;;;;;;5029520;28;20820;-83
2022/06/08 12:32:16;;;;;;;5.30;4.90;;;26.10;70.00;;;;;;5030133;28;20240;-82
2022/06/08 12:34:46;;;;;;;5.10;4.70;;;26.00;69.70;;;;;;5030901;28;20252;-83
2022/06/08 12:37:38;;;;;;;6.05;5.47;;;26.10;69.70;;;;;;5019335;28;20727;-83
2022/06/08 12:40:32;;;;;;;4.32;4.00;;;26.10;69.20;;;;;;5038138;28;20248;-83
2022/06/08 12:43:13;;;;;;;5.07;4.63;;;26.20;69.90;;;;;;5012962;28;20226;-82
2022/06/08 12:45:42;;;;;;;5.18;4.30;;;26.20;69.70;;;;;;5027994;28;20578;-82
2022/06/08 12:48:23;;;;;;;4.32;3.92;;;26.40;69.00;;;;;;5024517;28;20303;-83
2022/06/08 12:50:52;;;;;;;4.85;4.32;;;26.40;67.60;;;;;;5026167;28;20728;-82
2022/06/08 12:53:19;;;;;;;3.92;3.55;;;26.50;67.30;;;;;;5040067;28;20311;-82
2022/06/08 12:55:46;;;;;;;4.28;3.88;;;26.60;68.20;;;;;;5036464;28;20689;-83
2022/06/08 12:58:13;;;;;;;4.25;3.95;;;26.70;66.80;;;;;;5045436;28;20243;-83
2022/06/08 13:00:47;;;;;;;5.47;4.40;;;26.70;67.10;;;;;;5027977;28;20232;-83
2022/06/08 13:03:18;;;;;;;4.18;3.88;;;26.80;66.30;;;;;;5034370;28;20228;-83
2022/06/08 13:05:45;;;;;;;4.07;3.65;;;26.80;66.60;;;;;;5023167;28;20233;-82
2022/06/08 13:08:19;;;;;;;4.75;3.97;;;26.80;66.30;;;;;;5027465;28;20884;-82
2022/06/08 13:10:47;;;;;;;4.72;4.30;;;26.80;66.10;;;;;;5030825;28;20697;-82
2022/06/08 13:13:19;;;;;;;3.78;3.47;;;26.90;66.10;;;;;;5028911;28;20237;-82
2022/06/08 13:15:46;;;;;;;4.28;3.90;;;27.00;67.00;;;;;;5029970;28;20225;-82
2022/06/08 13:18:16;;;;;;;5.38;3.90;;;27.20;66.80;;;;;;5034141;28;20536;-82
2022/06/08 13:20:45;;;;;;;4.22;3.83;;;27.50;65.50;;;;;;5028977;28;20651;-82
2022/06/08 13:23:15;;;;;;;4.65;4.25;;;27.70;65.50;;;;;;5028942;28;20240;-82
2022/06/08 13:25:48;;;;;;;4.40;4.03;;;28.00;63.00;;;;;;5028855;28;20239;-82
2022/06/08 13:28:18;;;;;;;4.40;4.10;;;28.30;63.20;;;;;;5028980;28;20248;-82